Time;durP1;ratioP1;P1;durP2;ratioP2;P2;SDS_P1;SDS_P2;PMS_P1;PMS_P2;Temp;Humidity;BMP_temperature;BMP_pressure;BME280_temperature;BME280_humidity;BME280_pressure;Samples;Min_cycle;Max_cycle;Signal;HPM_P1;HPM_P2
2022/10/20 00:00:15;;;;;;;6.53;4.10;;;7.50;99.90;;;;;;7402415;19;19939;-88
2022/10/20 00:02:44;;;;;;;7.82;4.82;;;7.50;99.90;;;;;;7404542;19;19918;-89
2022/10/20 00:05:16;;;;;;;10.70;4.07;;;7.50;99.90;;;;;;7405111;19;20309;-89
2022/10/20 00:07:46;;;;;;;9.57;2.97;;;7.50;99.90;;;;;;7403417;19;20316;-88
2022/10/20 00:10:16;;;;;;;10.10;3.85;;;7.50;99.90;;;;;;7403249;19;20396;-89
2022/10/20 00:12:45;;;;;;;7.18;2.65;;;7.50;99.90;;;;;;7403899;19;20377;-88
2022/10/20 00:15:13;;;;;;;7.00;3.25;;;7.50;99.90;;;;;;7403351;19;19939;-89
2022/10/20 00:17:43;;;;;;;7.55;3.35;;;7.50;99.90;;;;;;7404187;19;20309;-88
2022/10/20 00:20:15;;;;;;;6.13;3.28;;;7.50;99.90;;;;;;7398314;19;19935;-88
2022/10/20 00:22:44;;;;;;;11.32;4.38;;;7.50;99.90;;;;;;7405404;19;19947;-88
2022/10/20 00:25:13;;;;;;;7.85;2.58;;;7.50;99.90;;;;;;7401850;19;20264;-89
2022/10/20 00:27:42;;;;;;;6.72;3.55;;;7.50;99.90;;;;;;7403631;19;19925;-88
2022/10/20 00:30:12;;;;;;;6.78;3.70;;;7.60;99.90;;;;;;7404404;19;19927;-88
2022/10/20 00:32:41;;;;;;;6.55;3.53;;;7.50;99.90;;;;;;7408003;19;20552;-89
2022/10/20 00:35:10;;;;;;;7.97;3.05;;;7.50;99.90;;;;;;7407663;19;19926;-87
2022/10/20 00:37:42;;;;;;;12.38;4.03;;;7.50;99.90;;;;;;7406921;19;19919;-89
2022/10/20 00:40:12;;;;;;;6.82;3.38;;;7.40;99.90;;;;;;7407475;19;19925;-89
2022/10/20 00:42:46;;;;;;;6.85;2.75;;;7.40;99.90;;;;;;7412399;19;20278;-88
2022/10/20 00:45:17;;;;;;;6.65;2.83;;;7.30;99.90;;;;;;7409837;19;19927;-88
2022/10/20 00:47:49;;;;;;;6.78;3.30;;;7.40;99.90;;;;;;7410343;19;19922;-88
2022/10/20 00:50:23;;;;;;;7.80;3.45;;;7.40;99.90;;;;;;7403836;19;19926;-88
2022/10/20 00:52:56;;;;;;;9.25;3.72;;;7.40;99.90;;;;;;7411538;19;19926;-88
2022/10/20 00:55:27;;;;;;;7.50;3.30;;;7.30;99.90;;;;;;7408452;19;19921;-88
2022/10/20 00:57:59;;;;;;;6.20;3.15;;;7.40;99.90;;;;;;7408901;19;20015;-89
2022/10/20 01:00:29;;;;;;;6.72;2.75;;;7.40;99.90;;;;;;7408710;19;19994;-89
2022/10/20 01:03:01;;;;;;;7.97;3.25;;;7.40;99.90;;;;;;7410877;19;19922;-88
2022/10/20 01:05:30;;;;;;;5.90;2.80;;;7.40;99.90;;;;;;7404542;19;19955;-88
2022/10/20 01:08:02;;;;;;;8.15;3.10;;;7.30;99.90;;;;;;7409883;19;19922;-89
2022/10/20 01:10:42;;;;;;;6.30;3.15;;;7.40;99.90;;;;;;7408181;19;19926;-89
2022/10/20 01:13:17;;;;;;;6.25;2.95;;;7.40;99.90;;;;;;7408995;19;19920;-88
2022/10/20 01:15:53;;;;;;;7.13;2.78;;;7.30;99.90;;;;;;7409393;19;19994;-89
2022/10/20 01:18:30;;;;;;;10.60;3.03;;;7.30;99.90;;;;;;7409452;19;19974;-89
2022/10/20 01:21:31;;;;;;;6.10;2.95;;;7.30;99.90;;;;;;7407008;19;19918;-88
2022/10/20 01:24:20;;;;;;;6.25;1.90;;;7.30;99.90;;;;;;7408617;19;19923;-88
2022/10/20 01:27:15;;;;;;;8.10;2.78;;;7.30;99.90;;;;;;7407971;19;19918;-89
2022/10/20 01:29:50;;;;;;;6.47;2.90;;;7.20;99.90;;;;;;7405410;19;19918;-88
2022/10/20 01:32:24;;;;;;;7.40;3.00;;;7.20;99.90;;;;;;7407309;19;20372;-87
2022/10/20 01:35:00;;;;;;;6.97;3.17;;;7.20;99.90;;;;;;7406929;19;19914;-89
2022/10/20 01:37:36;;;;;;;9.55;3.47;;;7.20;99.90;;;;;;7405332;19;19922;-89
2022/10/20 01:40:13;;;;;;;7.18;3.22;;;7.20;99.90;;;;;;7405366;19;20403;-88
2022/10/20 01:42:45;;;;;;;6.40;3.08;;;7.20;99.90;;;;;;7408821;19;20356;-89
2022/10/20 01:45:19;;;;;;;6.03;2.90;;;7.10;99.90;;;;;;7405935;19;19925;-88
2022/10/20 01:47:50;;;;;;;10.10;3.00;;;7.20;99.90;;;;;;7408373;19;19974;-88
2022/10/20 01:50:21;;;;;;;10.02;3.08;;;7.20;99.90;;;;;;7409826;19;20341;-89
2022/10/20 01:52:49;;;;;;;7.22;2.83;;;7.20;99.90;;;;;;7409247;19;19922;-88
2022/10/20 01:55:20;;;;;;;5.38;2.50;;;7.20;99.90;;;;;;7405792;19;20006;-89
2022/10/20 01:58:01;;;;;;;6.30;3.20;;;7.20;99.90;;;;;;7408466;19;19927;-89
2022/10/20 02:00:33;;;;;;;5.38;2.13;;;7.20;99.90;;;;;;7405251;19;20257;-89
2022/10/20 02:03:22;;;;;;;9.15;3.00;;;7.10;99.90;;;;;;7406236;19;20368;-89
2022/10/20 02:06:09;;;;;;;8.85;3.42;;;7.20;99.90;;;;;;7407559;19;19989;-89
2022/10/20 02:08:45;;;;;;;7.22;3.08;;;7.10;99.90;;;;;;7408469;19;19932;-89
2022/10/20 02:11:22;;;;;;;6.15;3.35;;;7.00;99.90;;;;;;7409487;19;19945;-89
2022/10/20 02:13:53;;;;;;;6.55;2.85;;;7.00;99.90;;;;;;7408915;19;19926;-88
2022/10/20 02:16:30;;;;;;;9.20;3.45;;;7.00;99.90;;;;;;7408654;19;19922;-89
2022/10/20 02:19:00;;;;;;;7.10;3.05;;;7.00;99.90;;;;;;7409130;19;19935;-89
2022/10/20 02:21:30;;;;;;;6.57;2.90;;;7.00;99.90;;;;;;7405095;19;19986;-88
2022/10/20 02:24:02;;;;;;;6.15;3.17;;;6.90;99.90;;;;;;7407070;19;19919;-89
2022/10/20 02:26:33;;;;;;;7.65;3.25;;;7.00;99.90;;;;;;7405205;19;19923;-88
2022/10/20 02:29:07;;;;;;;5.63;3.22;;;7.00;99.90;;;;;;7403963;19;19923;-89
2022/10/20 02:31:39;;;;;;;7.32;3.53;;;7.00;99.90;;;;;;7406949;19;19979;-88
2022/10/20 02:34:13;;;;;;;6.50;3.25;;;7.00;99.90;;;;;;7406869;19;19919;-88
2022/10/20 02:36:44;;;;;;;7.15;3.40;;;6.90;99.90;;;;;;7407164;19;19914;-88
2022/10/20 02:39:16;;;;;;;13.70;3.83;;;6.90;99.90;;;;;;7405082;19;19935;-89
2022/10/20 02:41:47;;;;;;;8.23;4.10;;;7.00;99.90;;;;;;7406811;19;19925;-88
2022/10/20 02:44:16;;;;;;;9.43;3.33;;;7.00;99.90;;;;;;7409797;19;20337;-89
2022/10/20 02:46:48;;;;;;;9.68;4.05;;;7.00;99.90;;;;;;7407163;19;19933;-88
2022/10/20 02:49:18;;;;;;;8.93;4.00;;;6.90;99.90;;;;;;7406233;19;19971;-89
2022/10/20 02:51:46;;;;;;;6.80;3.78;;;6.90;99.90;;;;;;7405905;19;19922;-89
2022/10/20 02:54:15;;;;;;;10.98;4.65;;;6.90;99.90;;;;;;7407072;19;19915;-89
2022/10/20 02:56:44;;;;;;;7.45;3.40;;;6.80;99.90;;;;;;7408003;19;19926;-89
2022/10/20 02:59:15;;;;;;;8.77;3.72;;;6.80;99.90;;;;;;7406399;19;19918;-89
2022/10/20 03:01:44;;;;;;;8.75;3.65;;;6.80;99.90;;;;;;7405008;19;19939;-88
2022/10/20 03:04:16;;;;;;;6.75;3.35;;;6.80;99.90;;;;;;7406601;19;20009;-88
2022/10/20 03:06:45;;;;;;;8.98;3.47;;;6.80;99.90;;;;;;7406087;19;19910;-89
2022/10/20 03:09:14;;;;;;;9.07;3.17;;;6.80;99.90;;;;;;7406226;19;19925;-89
2022/10/20 03:11:43;;;;;;;7.60;3.10;;;6.70;99.90;;;;;;7404376;19;20286;-89
2022/10/20 03:14:12;;;;;;;6.07;2.78;;;6.80;99.90;;;;;;7405495;19;19926;-89
2022/10/20 03:16:41;;;;;;;7.75;4.03;;;6.80;99.90;;;;;;7407458;19;19915;-89
2022/10/20 03:19:11;;;;;;;9.05;4.30;;;6.70;99.90;;;;;;7406960;19;19921;-89
2022/10/20 03:21:43;;;;;;;9.82;3.97;;;6.70;99.90;;;;;;7402468;19;19915;-89
2022/10/20 03:24:11;;;;;;;7.20;3.97;;;6.70;99.90;;;;;;7401668;19;20469;-89
2022/10/20 03:26:40;;;;;;;9.15;3.65;;;6.60;99.90;;;;;;7405518;19;20308;-89
2022/10/20 03:29:09;;;;;;;8.70;3.42;;;6.60;99.90;;;;;;7404763;19;19918;-89
2022/10/20 03:31:39;;;;;;;9.20;5.03;;;6.60;99.90;;;;;;7406966;19;19945;-89
2022/10/20 03:34:07;;;;;;;7.88;3.80;;;6.60;99.90;;;;;;7401502;19;20359;-89
2022/10/20 03:36:36;;;;;;;7.32;4.20;;;6.60;99.90;;;;;;7406868;19;19932;-88
2022/10/20 03:39:08;;;;;;;9.05;3.97;;;6.60;99.90;;;;;;7405983;19;19923;-88
2022/10/20 03:41:37;;;;;;;8.85;4.55;;;6.50;99.90;;;;;;7403324;19;19927;-88
2022/10/20 03:44:06;;;;;;;7.85;4.72;;;6.60;99.90;;;;;;7403211;19;20380;-88
2022/10/20 03:46:36;;;;;;;12.00;4.53;;;6.60;99.90;;;;;;7406259;19;19929;-88
2022/10/20 03:49:05;;;;;;;7.13;4.22;;;6.50;99.90;;;;;;7405692;19;19935;-88
2022/10/20 03:51:35;;;;;;;8.57;4.45;;;6.50;99.90;;;;;;7404928;19;19923;-89
2022/10/20 03:54:03;;;;;;;8.50;5.00;;;6.40;99.90;;;;;;7405077;19;19918;-88
2022/10/20 03:56:35;;;;;;;9.32;4.20;;;6.50;99.90;;;;;;7404090;19;19962;-88
2022/10/20 03:59:04;;;;;;;10.73;4.32;;;6.50;99.90;;;;;;7404760;19;19929;-88
2022/10/20 04:01:35;;;;;;;9.30;4.40;;;6.50;99.90;;;;;;7402100;19;19930;-88
2022/10/20 04:04:04;;;;;;;7.88;4.93;;;6.50;99.90;;;;;;7405557;19;19937;-89
2022/10/20 04:06:35;;;;;;;8.98;4.38;;;6.50;99.90;;;;;;7412715;19;19978;-88
2022/10/20 04:09:05;;;;;;;8.25;4.28;;;6.50;99.90;;;;;;7412092;19;19919;-88
2022/10/20 04:11:36;;;;;;;10.45;4.88;;;6.50;99.90;;;;;;7413735;19;19918;-88
2022/10/20 04:14:06;;;;;;;8.60;3.45;;;6.50;99.90;;;;;;7413115;19;19928;-88
2022/10/20 04:16:35;;;;;;;11.75;5.10;;;6.50;99.90;;;;;;7412724;19;19914;-88
2022/10/20 04:19:04;;;;;;;9.88;5.40;;;6.50;99.90;;;;;;7411905;19;19925;-88
2022/10/20 04:21:34;;;;;;;11.23;4.70;;;6.40;99.90;;;;;;7408105;19;19943;-88
2022/10/20 04:24:04;;;;;;;8.10;4.75;;;6.50;99.90;;;;;;7412836;19;19915;-88
2022/10/20 04:26:36;;;;;;;8.85;5.07;;;6.50;99.90;;;;;;7407098;19;19911;-88
2022/10/20 04:29:05;;;;;;;11.25;5.53;;;6.40;99.90;;;;;;7408026;19;19929;-88
2022/10/20 04:31:35;;;;;;;8.63;4.97;;;6.50;99.90;;;;;;7410405;19;19919;-88
2022/10/20 04:34:04;;;;;;;9.07;4.60;;;6.40;99.90;;;;;;7406985;19;19926;-88
2022/10/20 04:36:34;;;;;;;9.60;5.15;;;6.50;99.90;;;;;;7409662;19;19919;-88
2022/10/20 04:39:03;;;;;;;9.88;5.38;;;6.50;99.90;;;;;;7412478;19;20339;-88
2022/10/20 04:41:36;;;;;;;10.05;5.53;;;6.40;99.90;;;;;;7405976;19;19931;-88
2022/10/20 04:44:05;;;;;;;10.40;5.97;;;6.40;99.90;;;;;;7404529;19;19922;-88
2022/10/20 04:46:34;;;;;;;11.38;5.38;;;6.40;99.90;;;;;;7411371;19;19926;-88
2022/10/20 04:49:03;;;;;;;9.38;5.90;;;6.40;99.90;;;;;;7408923;19;19988;-88
2022/10/20 04:51:32;;;;;;;7.53;4.90;;;6.40;99.90;;;;;;7409105;19;19911;-89
2022/10/20 04:54:01;;;;;;;9.40;5.22;;;6.40;99.90;;;;;;7410865;19;20252;-88
2022/10/20 04:56:30;;;;;;;10.18;6.13;;;6.40;99.90;;;;;;7409109;19;19925;-88
2022/10/20 04:59:02;;;;;;;10.20;5.60;;;6.30;99.90;;;;;;7409152;19;19918;-88
2022/10/20 05:01:32;;;;;;;11.70;6.47;;;6.30;99.90;;;;;;7403934;19;19942;-87
2022/10/20 05:04:01;;;;;;;9.38;5.43;;;6.40;99.90;;;;;;7408217;19;19930;-88
2022/10/20 05:06:33;;;;;;;10.45;6.38;;;6.40;99.90;;;;;;7400812;19;19919;-88
2022/10/20 05:09:04;;;;;;;11.10;6.25;;;6.40;99.90;;;;;;7400441;19;19914;-88
2022/10/20 05:11:36;;;;;;;11.35;5.63;;;6.40;99.90;;;;;;7403078;19;20662;-88
2022/10/20 05:14:07;;;;;;;13.73;6.18;;;6.40;99.90;;;;;;7401963;19;20345;-88
2022/10/20 05:16:36;;;;;;;12.75;6.30;;;6.40;99.90;;;;;;7401009;19;19930;-88
2022/10/20 05:19:06;;;;;;;10.65;6.25;;;6.30;99.90;;;;;;7398902;19;19921;-88
2022/10/20 05:21:42;;;;;;;12.38;6.38;;;6.30;99.90;;;;;;7399393;19;19937;-88
2022/10/20 05:24:15;;;;;;;12.20;6.57;;;6.40;99.90;;;;;;7399482;19;20256;-88
2022/10/20 05:26:44;;;;;;;13.20;6.97;;;6.40;99.90;;;;;;7397230;19;19942;-88
2022/10/20 05:29:15;;;;;;;12.15;5.07;;;6.40;99.90;;;;;;7401463;19;20322;-88
2022/10/20 05:31:45;;;;;;;14.82;7.68;;;6.30;99.90;;;;;;7401292;19;20305;-87
2022/10/20 05:34:15;;;;;;;13.55;7.35;;;6.30;99.90;;;;;;7399433;19;19943;-87
2022/10/20 05:36:44;;;;;;;12.95;7.13;;;6.40;99.90;;;;;;7400496;19;19937;-88
2022/10/20 05:39:13;;;;;;;15.43;7.25;;;6.30;99.90;;;;;;7398559;19;19978;-87
2022/10/20 05:41:42;;;;;;;11.23;5.68;;;6.40;99.90;;;;;;7398452;19;19919;-87
2022/10/20 05:44:16;;;;;;;10.45;6.05;;;6.40;99.90;;;;;;7399665;19;19926;-87
2022/10/20 05:46:44;;;;;;;12.38;7.05;;;6.50;99.90;;;;;;7399341;19;19914;-87
2022/10/20 05:49:16;;;;;;;11.93;5.55;;;6.50;99.90;;;;;;7399508;19;20350;-88
2022/10/20 05:51:46;;;;;;;10.80;6.90;;;6.50;99.90;;;;;;7399823;19;19918;-87
2022/10/20 05:54:16;;;;;;;13.70;6.85;;;6.40;99.90;;;;;;7399998;19;20637;-88
2022/10/20 05:56:45;;;;;;;14.48;6.80;;;6.40;99.90;;;;;;7399750;19;19925;-87
2022/10/20 05:59:16;;;;;;;11.70;6.45;;;6.40;99.90;;;;;;7398698;19;19922;-88
2022/10/20 06:01:52;;;;;;;14.32;7.00;;;6.40;99.90;;;;;;7399398;19;19922;-86
2022/10/20 06:04:26;;;;;;;13.65;6.63;;;6.40;99.90;;;;;;7407072;19;19974;-94
2022/10/20 06:06:56;;;;;;;25.80;8.52;;;6.30;99.90;;;;;;7409516;19;19918;-87
2022/10/20 06:09:25;;;;;;;88.15;11.68;;;6.40;99.90;;;;;;7408372;19;19922;-90
2022/10/20 06:11:57;;;;;;;52.88;10.52;;;6.40;99.90;;;;;;7406374;19;19926;-91
2022/10/20 06:14:29;;;;;;;19.45;8.93;;;6.40;99.90;;;;;;7402602;19;19918;-94
2022/10/20 06:16:58;;;;;;;13.88;7.78;;;6.30;99.90;;;;;;7406110;19;20372;-93
2022/10/20 06:19:27;;;;;;;15.25;7.88;;;6.20;99.90;;;;;;7406977;19;19987;-91
2022/10/20 06:21:57;;;;;;;14.63;8.13;;;6.20;99.90;;;;;;7409545;19;19915;-93
2022/10/20 06:24:27;;;;;;;14.95;7.40;;;6.20;99.90;;;;;;7408983;19;19918;-94
2022/10/20 06:26:56;;;;;;;13.98;8.02;;;6.20;99.90;;;;;;7408865;19;19915;-93
2022/10/20 06:29:28;;;;;;;14.13;7.70;;;6.20;99.90;;;;;;7407015;19;19938;-93
2022/10/20 06:31:57;;;;;;;14.90;8.30;;;6.20;99.90;;;;;;7411827;19;19923;-94
2022/10/20 06:34:27;;;;;;;14.75;7.90;;;6.20;99.90;;;;;;7410274;19;19919;-94
2022/10/20 06:36:56;;;;;;;;;;;6.30;99.90;;;;;;7413882;19;19978;-94
2022/10/20 06:39:26;;;;;;;15.93;7.95;;;6.20;99.90;;;;;;7407879;19;19918;-95
2022/10/20 06:41:56;;;;;;;13.82;7.78;;;6.30;99.90;;;;;;7409518;19;19915;-95
2022/10/20 06:44:27;;;;;;;;;;;6.30;99.90;;;;;;7412394;19;19957;-95
2022/10/20 06:46:58;;;;;;;13.15;7.47;;;6.30;99.90;;;;;;7408551;19;19911;-95
2022/10/20 06:49:28;;;;;;;14.57;7.65;;;6.30;99.90;;;;;;7407889;19;19938;-95
2022/10/20 06:51:56;;;;;;;13.68;6.85;;;6.40;99.90;;;;;;7410427;19;19922;-95
2022/10/20 06:54:25;;;;;;;13.82;7.28;;;6.40;99.90;;;;;;7406968;19;19929;-95
2022/10/20 06:56:54;;;;;;;15.75;7.47;;;6.50;99.90;;;;;;7408501;19;19929;-95
2022/10/20 06:59:23;;;;;;;13.32;7.35;;;6.50;99.90;;;;;;7411928;19;19977;-94
2022/10/20 07:01:55;;;;;;;12.13;6.35;;;6.50;99.90;;;;;;7407630;19;20272;-95
2022/10/20 07:04:24;;;;;;;12.32;7.22;;;6.60;99.90;;;;;;7409696;19;19918;-95
2022/10/20 07:06:53;;;;;;;12.65;7.15;;;6.60;99.90;;;;;;7408984;19;19954;-93
2022/10/20 07:09:22;;;;;;;16.13;7.18;;;6.60;99.90;;;;;;7410478;19;19910;-94
2022/10/20 07:11:53;;;;;;;12.63;6.63;;;6.80;99.90;;;;;;7406115;19;20356;-95
2022/10/20 07:14:22;;;;;;;14.27;6.50;;;6.90;99.90;;;;;;7408068;19;20248;-95
2022/10/20 07:16:51;;;;;;;13.10;7.22;;;7.00;99.90;;;;;;7409037;19;20336;-95
2022/10/20 07:19:23;;;;;;;10.98;6.43;;;7.10;99.90;;;;;;7409612;19;19939;-95
2022/10/20 07:21:52;;;;;;;12.05;7.35;;;7.20;99.90;;;;;;7408412;19;19923;-95
2022/10/20 07:24:22;;;;;;;11.43;5.75;;;7.20;99.90;;;;;;7408493;19;20263;-95
2022/10/20 07:26:51;;;;;;;11.38;6.00;;;7.30;99.90;;;;;;7409951;19;19921;-95
2022/10/20 07:29:20;;;;;;;13.02;7.00;;;7.50;99.90;;;;;;7406195;19;19943;-94
2022/10/20 07:31:55;;;;;;;12.73;6.47;;;7.60;99.90;;;;;;7407421;19;19915;-96
2022/10/20 07:34:27;;;;;;;14.10;7.15;;;7.80;99.90;;;;;;7408762;19;19999;-95
2022/10/20 07:36:57;;;;;;;15.32;6.63;;;7.90;99.90;;;;;;7410464;19;19932;-95
2022/10/20 07:39:26;;;;;;;11.95;6.43;;;8.10;99.90;;;;;;7410266;19;19919;-95
2022/10/20 07:41:57;;;;;;;11.98;6.72;;;8.10;99.90;;;;;;7420101;19;19990;-95
2022/10/20 07:44:26;;;;;;;12.43;6.55;;;8.30;99.90;;;;;;7422884;19;19923;-94
2022/10/20 07:46:55;;;;;;;11.30;6.68;;;8.60;99.90;;;;;;7425381;19;19914;-95
2022/10/20 07:49:27;;;;;;;14.32;7.18;;;8.70;99.90;;;;;;7425447;19;19911;-96
2022/10/20 07:51:59;;;;;;;9.73;5.78;;;8.60;99.90;;;;;;7437839;19;19926;-92
2022/10/20 07:54:28;;;;;;;10.80;6.13;;;8.50;99.90;;;;;;7431034;19;19943;-95
2022/10/20 07:56:59;;;;;;;11.75;6.50;;;8.30;99.90;;;;;;7422229;19;19938;-93
2022/10/20 07:59:28;;;;;;;10.70;4.95;;;8.20;99.90;;;;;;7423300;19;20574;-94
2022/10/20 08:01:57;;;;;;;10.80;5.28;;;8.10;99.90;;;;;;7415608;19;19932;-94
2022/10/20 08:04:30;;;;;;;11.40;6.28;;;8.10;99.90;;;;;;7422673;19;19911;-94
2022/10/20 08:07:00;;;;;;;11.60;5.95;;;8.00;99.90;;;;;;7421737;19;20266;-93
2022/10/20 08:09:29;;;;;;;10.48;6.13;;;8.00;99.90;;;;;;7418959;19;19918;-94
2022/10/20 08:11:59;;;;;;;10.27;6.50;;;8.00;99.90;;;;;;7423424;19;19922;-93
2022/10/20 08:14:30;;;;;;;11.68;4.50;;;8.00;99.90;;;;;;7419152;19;19975;-94
2022/10/20 08:16:59;;;;;;;9.10;5.32;;;8.10;99.90;;;;;;7423134;19;19922;-95
2022/10/20 08:19:40;;;;;;;11.52;6.22;;;8.10;99.90;;;;;;7419808;19;19925;-95
2022/10/20 08:22:11;;;;;;;9.77;5.25;;;8.20;99.90;;;;;;7420817;19;19918;-94
2022/10/20 08:24:41;;;;;;;8.85;4.68;;;8.10;99.90;;;;;;7421223;19;19918;-93
2022/10/20 08:27:11;;;;;;;11.77;5.88;;;8.10;99.90;;;;;;7420316;19;19941;-94
2022/10/20 08:29:41;;;;;;;9.10;5.25;;;8.20;99.90;;;;;;7417809;19;20329;-93
2022/10/20 08:32:11;;;;;;;14.45;6.18;;;8.30;99.90;;;;;;7418569;19;19929;-93
2022/10/20 08:34:43;;;;;;;10.43;5.38;;;8.30;99.90;;;;;;7419697;19;19925;-94
2022/10/20 08:37:12;;;;;;;10.25;6.30;;;8.30;99.90;;;;;;7422522;19;19943;-93
2022/10/20 08:39:41;;;;;;;10.80;6.00;;;8.30;99.90;;;;;;7418861;19;19986;-93
2022/10/20 08:42:12;;;;;;;8.88;5.25;;;8.40;99.90;;;;;;7417743;19;19918;-95
2022/10/20 08:44:49;;;;;;;8.57;5.15;;;8.50;99.90;;;;;;7421995;19;19946;-94
2022/10/20 08:47:28;;;;;;;8.40;5.57;;;8.60;99.90;;;;;;7416644;19;19914;-94
2022/10/20 08:50:02;;;;;;;10.35;6.05;;;8.70;99.90;;;;;;7421740;19;19922;-95
2022/10/20 08:52:31;;;;;;;8.68;5.13;;;8.80;99.90;;;;;;7409232;19;19921;-94
2022/10/20 08:55:02;;;;;;;7.75;3.70;;;8.90;99.90;;;;;;7410620;19;20315;-94
2022/10/20 08:57:33;;;;;;;9.93;5.47;;;9.00;99.90;;;;;;7412856;19;19922;-94
2022/10/20 09:00:14;;;;;;;10.57;5.53;;;9.10;99.90;;;;;;7413546;19;19922;-95
2022/10/20 09:02:54;;;;;;;6.38;4.13;;;9.20;99.90;;;;;;7412766;19;19911;-95
2022/10/20 09:05:30;;;;;;;11.43;5.30;;;9.30;99.90;;;;;;7414501;19;19929;-96
2022/10/20 09:08:00;;;;;;;7.13;4.15;;;9.30;99.90;;;;;;7412943;19;19955;-94
2022/10/20 09:10:36;;;;;;;9.45;5.38;;;9.30;99.90;;;;;;7413009;19;19938;-94
2022/10/20 09:13:17;;;;;;;8.07;4.60;;;9.40;99.90;;;;;;7415116;19;20332;-95
2022/10/20 09:16:00;;;;;;;8.10;4.80;;;9.50;99.90;;;;;;7412883;19;19911;-92
2022/10/20 09:18:37;;;;;;;10.20;5.13;;;9.60;99.90;;;;;;7413062;19;19918;-94
2022/10/20 09:21:15;;;;;;;13.70;4.72;;;9.70;99.90;;;;;;7413892;19;19966;-94
2022/10/20 09:23:46;;;;;;;10.35;4.65;;;9.70;99.90;;;;;;7408496;19;19939;-94
2022/10/20 09:26:20;;;;;;;8.25;5.43;;;9.80;99.90;;;;;;7415640;19;19915;-94
2022/10/20 09:28:51;;;;;;;7.00;4.93;;;9.80;99.90;;;;;;7416028;19;19918;-93
2022/10/20 09:31:25;;;;;;;9.20;4.22;;;9.90;99.90;;;;;;7415044;19;19973;-93
2022/10/20 09:33:56;;;;;;;7.97;4.90;;;10.00;99.90;;;;;;7416739;19;19922;-95
2022/10/20 09:36:33;;;;;;;9.98;5.03;;;10.10;99.90;;;;;;7411891;19;20127;-92
2022/10/20 09:39:03;;;;;;;7.35;4.47;;;10.20;99.90;;;;;;7411189;19;19924;-94
2022/10/20 09:41:36;;;;;;;7.70;4.30;;;10.20;99.90;;;;;;7417232;19;19917;-94
2022/10/20 09:44:15;;;;;;;6.57;3.72;;;10.30;99.90;;;;;;7408386;19;19926;-94
2022/10/20 09:46:53;;;;;;;9.50;4.88;;;10.40;99.90;;;;;;7410603;19;19966;-94
2022/10/20 09:49:27;;;;;;;6.95;4.07;;;10.60;99.90;;;;;;7414084;19;19915;-94
2022/10/20 09:52:01;;;;;;;7.70;5.10;;;10.60;99.90;;;;;;7413837;19;19934;-94
2022/10/20 09:54:30;;;;;;;7.18;4.85;;;10.80;99.90;;;;;;7413807;19;19915;-93
2022/10/20 09:57:07;;;;;;;8.43;4.22;;;10.90;99.90;;;;;;7417556;19;19919;-94
2022/10/20 09:59:40;;;;;;;7.97;4.88;;;10.90;99.90;;;;;;7423448;19;19922;-93
2022/10/20 10:02:29;;;;;;;9.80;5.13;;;11.00;99.90;;;;;;7413477;19;19918;-94
2022/10/20 10:05:17;;;;;;;7.93;3.92;;;10.90;99.90;;;;;;7410998;19;20233;-94
2022/10/20 10:07:58;;;;;;;;;;;10.90;99.90;;;;;;7414777;19;19939;-92
2022/10/20 10:10:30;;;;;;;8.55;3.95;;;10.90;99.90;;;;;;7410940;19;19922;-94
2022/10/20 10:13:04;;;;;;;8.93;4.18;;;11.10;99.90;;;;;;7400322;19;20014;-86
2022/10/20 10:15:37;;;;;;;10.73;4.35;;;11.10;99.90;;;;;;7400306;19;20367;-89
2022/10/20 10:18:15;;;;;;;8.20;5.15;;;11.20;99.90;;;;;;7396047;19;20413;-84
2022/10/20 10:20:45;;;;;;;7.82;4.60;;;11.30;99.90;;;;;;7398076;19;20014;-84
2022/10/20 10:23:26;;;;;;;6.38;4.13;;;11.40;99.90;;;;;;7403786;19;19914;-83
2022/10/20 10:26:01;;;;;;;7.45;4.78;;;11.40;99.90;;;;;;7403664;19;20265;-86
2022/10/20 10:28:38;;;;;;;9.70;4.20;;;11.40;99.90;;;;;;7407120;19;19921;-85
2022/10/20 10:31:26;;;;;;;6.10;3.85;;;11.50;99.90;;;;;;7405376;19;20013;-85
2022/10/20 10:34:27;;;;;;;7.05;4.20;;;11.50;99.90;;;;;;7407252;19;19918;-84
2022/10/20 10:36:57;;;;;;;8.73;4.78;;;11.60;99.90;;;;;;7407126;19;19922;-85
2022/10/20 10:39:30;;;;;;;;;;;11.70;99.90;;;;;;7407516;19;20262;-89
2022/10/20 10:42:12;;;;;;;8.85;4.00;;;11.80;99.90;;;;;;7408264;19;20327;-88
2022/10/20 10:44:51;;;;;;;8.93;3.60;;;11.80;99.90;;;;;;7404632;19;19921;-87
2022/10/20 10:47:32;;;;;;;7.68;3.78;;;11.90;99.90;;;;;;7407110;19;19918;-87
2022/10/20 10:50:25;;;;;;;8.10;4.15;;;11.90;99.90;;;;;;7404931;19;20273;-86
2022/10/20 10:53:04;;;;;;;8.02;4.85;;;11.90;99.90;;;;;;7406758;19;19926;-86
2022/10/20 10:55:52;;;;;;;8.10;4.45;;;11.90;99.90;;;;;;7403590;19;19926;-87
2022/10/20 10:58:26;;;;;;;;;;;12.00;99.90;;;;;;7409883;19;19918;-85
2022/10/20 11:01:00;;;;;;;8.05;4.13;;;12.10;99.90;;;;;;7404040;19;19914;-85
2022/10/20 11:03:54;;;;;;;9.88;4.72;;;12.10;99.90;;;;;;7407359;19;19914;-84
2022/10/20 11:06:31;;;;;;;9.18;5.40;;;12.20;99.90;;;;;;7406899;19;19933;-85
2022/10/20 11:09:33;;;;;;;7.22;4.80;;;12.20;99.90;;;;;;7405612;19;19931;-86
2022/10/20 11:12:30;;;;;;;7.88;4.60;;;12.30;99.90;;;;;;7400795;19;19907;-86
2022/10/20 11:15:13;;;;;;;7.18;4.40;;;12.40;99.90;;;;;;7402934;19;19927;-84
2022/10/20 11:17:53;;;;;;;8.63;4.13;;;12.50;99.90;;;;;;7406072;19;19922;-86
2022/10/20 11:20:37;;;;;;;9.63;4.88;;;12.50;99.90;;;;;;7407454;19;19922;-86
2022/10/20 11:23:33;;;;;;;6.35;4.75;;;12.60;99.90;;;;;;7402256;19;19929;-85
2022/10/20 11:26:15;;;;;;;10.25;4.78;;;12.80;99.90;;;;;;7401948;19;20313;-85
2022/10/20 11:28:51;;;;;;;8.32;5.10;;;12.80;99.90;;;;;;7403745;19;19918;-84
2022/10/20 11:31:27;;;;;;;7.25;4.55;;;12.80;99.90;;;;;;7404433;19;20277;-84
2022/10/20 11:34:01;;;;;;;7.78;5.28;;;12.90;99.90;;;;;;7396330;19;20015;-84
2022/10/20 11:36:37;;;;;;;8.90;5.20;;;12.90;99.90;;;;;;7393433;19;20021;-84
2022/10/20 11:39:07;;;;;;;8.52;5.43;;;12.90;99.90;;;;;;7405186;19;19931;-84
2022/10/20 11:41:41;;;;;;;8.60;5.03;;;12.80;99.90;;;;;;7402801;19;19929;-84
2022/10/20 11:44:16;;;;;;;8.02;4.88;;;12.80;99.90;;;;;;7400743;19;19925;-84
2022/10/20 11:46:50;;;;;;;8.45;5.43;;;12.90;99.90;;;;;;7403137;19;19919;-84
2022/10/20 11:49:21;;;;;;;8.25;5.93;;;12.90;99.90;;;;;;7403088;19;19919;-84
2022/10/20 11:52:21;;;;;;;7.43;4.30;;;12.90;99.90;;;;;;7402867;19;19933;-85
2022/10/20 11:55:16;;;;;;;8.57;5.43;;;12.90;99.90;;;;;;7398594;19;19915;-87
2022/10/20 11:57:57;;;;;;;8.70;5.15;;;13.00;99.90;;;;;;7406832;19;19978;-85
2022/10/20 12:01:02;;;;;;;9.15;5.35;;;13.00;99.90;;;;;;7406310;19;19923;-87
2022/10/20 12:03:56;;;;;;;9.38;4.05;;;13.00;99.90;;;;;;7398628;19;20344;-88
2022/10/20 12:06:32;;;;;;;;;;;13.10;99.90;;;;;;7404196;19;20345;-87
2022/10/20 12:09:25;;;;;;;11.20;5.10;;;13.10;99.90;;;;;;7395213;19;19945;-87
2022/10/20 12:11:58;;;;;;;7.88;5.53;;;13.10;99.90;;;;;;7400676;19;19956;-87
2022/10/20 12:14:35;;;;;;;8.10;5.63;;;13.10;99.90;;;;;;7404693;19;19922;-86
2022/10/20 12:17:43;;;;;;;7.97;5.30;;;13.10;99.90;;;;;;7402422;19;19927;-86
2022/10/20 12:20:51;;;;;;;7.82;4.30;;;13.10;99.90;;;;;;7401593;19;19934;-88
2022/10/20 12:23:52;;;;;;;9.20;5.18;;;13.10;99.90;;;;;;7401608;19;19943;-86
2022/10/20 12:27:02;;;;;;;9.75;5.40;;;13.10;99.90;;;;;;7404230;19;19923;-87
2022/10/20 12:29:59;;;;;;;7.82;5.70;;;13.10;99.90;;;;;;7409715;19;19929;-87
2022/10/20 12:33:03;;;;;;;11.27;4.93;;;13.10;99.90;;;;;;7410459;19;19918;-87
2022/10/20 12:36:02;;;;;;;11.20;5.32;;;13.10;99.90;;;;;;7409449;19;19918;-87
2022/10/20 12:38:50;;;;;;;8.57;5.97;;;13.00;99.90;;;;;;7410556;19;20257;-87
2022/10/20 12:41:32;;;;;;;9.60;5.88;;;13.10;99.90;;;;;;7410443;19;19942;-87
2022/10/20 12:44:03;;;;;;;;;;;13.00;99.90;;;;;;7413650;19;20270;-87
2022/10/20 12:46:55;;;;;;;10.10;6.40;;;13.00;99.90;;;;;;7411056;19;19919;-86
2022/10/20 12:49:39;;;;;;;10.10;4.85;;;13.00;99.90;;;;;;7408873;19;19922;-86
2022/10/20 12:52:17;;;;;;;9.75;5.57;;;13.00;99.90;;;;;;7410546;19;19922;-87
2022/10/20 12:55:06;;;;;;;8.30;5.43;;;12.90;99.90;;;;;;7411661;19;20294;-87
2022/10/20 12:57:43;;;;;;;8.95;5.90;;;12.90;99.90;;;;;;7400744;19;20015;-87
2022/10/20 13:01:05;;;;;;;10.45;5.38;;;13.00;99.90;;;;;;7404455;19;20245;-87
2022/10/20 13:03:51;;;;;;;9.55;5.55;;;12.80;99.90;;;;;;7407450;19;19911;-87
2022/10/20 13:06:46;;;;;;;9.88;6.68;;;12.80;99.90;;;;;;7406588;19;19952;-87
2022/10/20 13:09:23;;;;;;;9.70;6.13;;;12.80;99.90;;;;;;7408507;19;19922;-88
2022/10/20 13:12:29;;;;;;;11.35;5.90;;;12.80;99.90;;;;;;7407465;19;19919;-87
2022/10/20 13:15:21;;;;;;;8.75;5.78;;;12.80;99.90;;;;;;7409622;19;19950;-86
2022/10/20 13:18:18;;;;;;;11.73;7.18;;;12.80;99.90;;;;;;7408067;19;19942;-86
2022/10/20 13:21:22;;;;;;;9.70;5.50;;;12.80;99.90;;;;;;7406091;19;20233;-87
2022/10/20 13:24:20;;;;;;;12.45;6.57;;;12.70;99.90;;;;;;7406710;19;19918;-86
2022/10/20 13:27:11;;;;;;;10.65;6.53;;;12.70;99.90;;;;;;7404317;19;20016;-87
2022/10/20 13:30:01;;;;;;;10.70;6.93;;;12.70;99.90;;;;;;7405603;19;19919;-86
2022/10/20 13:32:59;;;;;;;12.40;7.30;;;12.60;99.90;;;;;;7408544;19;20311;-86